sensor_id;sensor_type;location;lat;lon;timestamp;pressure;altitude;pressure_sealevel;temperature;humidity
24558;BME280;12726;49.148;8.582;2023-07-29T00:02:02;99859.75;;;17.07;100.00
24558;BME280;12726;49.148;8.582;2023-07-29T00:04:48;99842.91;;;17.05;100.00
24558;BME280;12726;49.148;8.582;2023-07-29T00:07:33;99853.22;;;17.03;100.00
24558;BME280;12726;49.148;8.582;2023-07-29T00:10:19;99844.25;;;17.02;100.00
24558;BME280;12726;49.148;8.582;2023-07-29T00:13:05;99849.13;;;17.05;100.00
24558;BME280;12726;49.148;8.582;2023-07-29T00:15:53;99843.69;;;17.05;100.00
24558;BME280;12726;49.148;8.582;2023-07-29T00:18:39;99842.91;;;17.05;100.00
24558;BME280;12726;49.148;8.582;2023-07-29T00:21:24;99842.91;;;17.05;100.00
24558;BME280;12726;49.148;8.582;2023-07-29T00:24:09;99837.47;;;17.05;100.00
24558;BME280;12726;49.148;8.582;2023-07-29T00:26:54;99840.97;;;17.05;100.00
24558;BME280;12726;49.148;8.582;2023-07-29T00:29:40;99836.34;;;17.06;100.00
24558;BME280;12726;49.148;8.582;2023-07-29T00:32:27;99834.75;;;17.05;100.00
24558;BME280;12726;49.148;8.582;2023-07-29T00:35:12;99828.19;;;17.06;100.00
24558;BME280;12726;49.148;8.582;2023-07-29T00:37:57;99830.09;;;17.05;100.00
24558;BME280;12726;49.148;8.582;2023-07-29T00:40:43;99829.31;;;17.05;100.00
24558;BME280;12726;49.148;8.582;2023-07-29T00:43:28;99818.41;;;17.05;100.00
24558;BME280;12726;49.148;8.582;2023-07-29T00:46:15;99813.25;;;17.08;100.00
24558;BME280;12726;49.148;8.582;2023-07-29T00:49:02;99808.38;;;17.10;100.00
24558;BME280;12726;49.148;8.582;2023-07-29T00:51:48;99809.44;;;17.09;100.00
24558;BME280;12726;49.148;8.582;2023-07-29T00:54:33;99812.97;;;17.10;100.00
24558;BME280;12726;49.148;8.582;2023-07-29T00:57:19;99818.97;;;17.12;100.00
24558;BME280;12726;49.148;8.582;2023-07-29T01:00:05;99816.25;;;17.17;100.00
24558;BME280;12726;49.148;8.582;2023-07-29T01:02:52;99811.63;;;17.22;100.00
24558;BME280;12726;49.148;8.582;2023-07-29T01:05:49;99805.94;;;17.19;100.00
24558;BME280;12726;49.148;8.582;2023-07-29T01:08:41;99811.63;;;17.22;100.00
24558;BME280;12726;49.148;8.582;2023-07-29T01:11:41;99805.94;;;17.19;100.00
24558;BME280;12726;49.148;8.582;2023-07-29T01:14:37;99796.13;;;17.18;100.00
24558;BME280;12726;49.148;8.582;2023-07-29T01:17:29;99795.88;;;17.25;100.00
24558;BME280;12726;49.148;8.582;2023-07-29T01:20:16;99788.53;;;17.25;100.00
24558;BME280;12726;49.148;8.582;2023-07-29T01:23:05;99781.44;;;17.24;100.00
24558;BME280;12726;49.148;8.582;2023-07-29T01:25:52;99778.72;;;17.19;100.00
24558;BME280;12726;49.148;8.582;2023-07-29T01:28:37;99781.72;;;17.17;100.00
24558;BME280;12726;49.148;8.582;2023-07-29T01:31:29;99787.13;;;17.12;100.00
24558;BME280;12726;49.148;8.582;2023-07-29T01:34:17;99783.31;;;17.08;100.00
24558;BME280;12726;49.148;8.582;2023-07-29T01:37:09;99786.56;;;17.05;100.00
24558;BME280;12726;49.148;8.582;2023-07-29T01:39:57;99787.41;;;17.06;100.00
24558;BME280;12726;49.148;8.582;2023-07-29T01:42:45;99776.78;;;16.99;100.00
24558;BME280;12726;49.148;8.582;2023-07-29T01:45:30;99775.97;;;16.94;100.00
24558;BME280;12726;49.148;8.582;2023-07-29T01:48:22;99770.53;;;16.94;100.00
24558;BME280;12726;49.148;8.582;2023-07-29T01:51:07;99775.16;;;16.98;100.00
24558;BME280;12726;49.148;8.582;2023-07-29T01:53:53;99765.09;;;16.94;100.00
24558;BME280;12726;49.148;8.582;2023-07-29T01:56:39;99764.53;;;16.92;100.00
24558;BME280;12726;49.148;8.582;2023-07-29T01:59:26;99768.06;;;16.87;100.00
24558;BME280;12726;49.148;8.582;2023-07-29T02:02:11;99768.88;;;16.88;100.00
24558;BME280;12726;49.148;8.582;2023-07-29T02:04:57;99768.06;;;16.87;100.00
24558;BME280;12726;49.148;8.582;2023-07-29T02:07:42;99781.66;;;16.87;100.00
24558;BME280;12726;49.148;8.582;2023-07-29T02:10:27;99776.78;;;16.89;100.00
24558;BME280;12726;49.148;8.582;2023-07-29T02:13:13;99779.50;;;16.89;100.00
24558;BME280;12726;49.148;8.582;2023-07-29T02:15:59;99774.31;;;16.93;100.00
24558;BME280;12726;49.148;8.582;2023-07-29T02:18:45;99769.69;;;16.93;100.00
24558;BME280;12726;49.148;8.582;2023-07-29T02:21:30;99766.47;;;16.96;100.00
24558;BME280;12726;49.148;8.582;2023-07-29T02:24:16;99774.34;;;16.98;100.00
24558;BME280;12726;49.148;8.582;2023-07-29T02:27:01;99776.25;;;17.02;100.00
24558;BME280;12726;49.148;8.582;2023-07-29T02:29:47;99784.97;;;17.04;100.00
24558;BME280;12726;49.148;8.582;2023-07-29T02:32:34;99784.97;;;17.04;100.00
24558;BME280;12726;49.148;8.582;2023-07-29T02:35:19;99787.69;;;17.09;100.00
24558;BME280;12726;49.148;8.582;2023-07-29T02:38:04;99783.31;;;17.08;100.00
24558;BME280;12726;49.148;8.582;2023-07-29T02:40:50;99789.84;;;17.07;100.00
24558;BME280;12726;49.148;8.582;2023-07-29T02:43:35;99784.69;;;17.06;100.00
24558;BME280;12726;49.148;8.582;2023-07-29T02:46:20;99795.03;;;17.04;100.00
24558;BME280;12726;49.148;8.582;2023-07-29T02:49:07;99796.66;;;17.05;100.00
24558;BME280;12726;49.148;8.582;2023-07-29T02:51:52;99771.38;;;17.09;100.00
24558;BME280;12726;49.148;8.582;2023-07-29T02:54:38;99767.00;;;17.08;100.00
24558;BME280;12726;49.148;8.582;2023-07-29T02:57:23;99761.00;;;17.06;100.00
24558;BME280;12726;49.148;8.582;2023-07-29T03:00:10;99755.31;;;17.08;100.00
24558;BME280;12726;49.148;8.582;2023-07-29T03:02:55;99765.13;;;17.04;100.00
24558;BME280;12726;49.148;8.582;2023-07-29T03:05:42;99763.47;;;17.03;100.00
24558;BME280;12726;49.148;8.582;2023-07-29T03:08:28;99760.50;;;17.04;100.00
24558;BME280;12726;49.148;8.582;2023-07-29T03:11:14;99740.34;;;17.05;100.00
24558;BME280;12726;49.148;8.582;2023-07-29T03:14:00;99740.91;;;17.02;100.00
24558;BME280;12726;49.148;8.582;2023-07-29T03:16:46;99742.25;;;17.00;100.00
24558;BME280;12726;49.148;8.582;2023-07-29T03:19:31;99739.78;;;16.98;100.00
24558;BME280;12726;49.148;8.582;2023-07-29T03:22:18;99728.41;;;16.96;100.00
24558;BME280;12726;49.148;8.582;2023-07-29T03:25:04;99723.47;;;16.98;100.00
24558;BME280;12726;49.148;8.582;2023-07-29T03:27:49;99712.91;;;16.97;100.00
24558;BME280;12726;49.148;8.582;2023-07-29T03:30:35;99705.00;;;16.95;100.00
24558;BME280;12726;49.148;8.582;2023-07-29T03:33:21;99710.72;;;16.94;100.00
24558;BME280;12726;49.148;8.582;2023-07-29T03:36:06;99711.53;;;16.94;100.00
24558;BME280;12726;49.148;8.582;2023-07-29T03:38:54;99720.50;;;16.95;100.00
24558;BME280;12726;49.148;8.582;2023-07-29T03:41:39;99716.44;;;16.97;100.00
24558;BME280;12726;49.148;8.582;2023-07-29T03:44:24;99715.31;;;16.98;100.00
24558;BME280;12726;49.148;8.582;2023-07-29T03:47:10;99711.50;;;16.99;100.00
24558;BME280;12726;49.148;8.582;2023-07-29T03:49:55;99716.97;;;16.99;100.00
24558;BME280;12726;49.148;8.582;2023-07-29T03:52:40;99719.41;;;17.01;100.00
24558;BME280;12726;49.148;8.582;2023-07-29T03:55:27;99706.91;;;17.00;100.00
24558;BME280;12726;49.148;8.582;2023-07-29T03:58:13;99715.34;;;17.03;100.00
24558;BME280;12726;49.148;8.582;2023-07-29T04:00:58;99703.09;;;17.06;100.00
24558;BME280;12726;49.148;8.582;2023-07-29T04:03:44;99705.81;;;17.06;100.00
24558;BME280;12726;49.148;8.582;2023-07-29T04:06:30;99708.53;;;17.06;100.00
24558;BME280;12726;49.148;8.582;2023-07-29T04:09:16;99710.97;;;17.07;100.00
24558;BME280;12726;49.148;8.582;2023-07-29T04:12:03;99724.56;;;17.07;100.00
24558;BME280;12726;49.148;8.582;2023-07-29T04:14:49;99725.41;;;17.08;100.00
24558;BME280;12726;49.148;8.582;2023-07-29T04:17:34;99737.91;;;17.14;100.00
24558;BME280;12726;49.148;8.582;2023-07-29T04:20:19;99750.69;;;17.13;100.00
24558;BME280;12726;49.148;8.582;2023-07-29T04:23:05;99753.13;;;17.20;100.00
24558;BME280;12726;49.148;8.582;2023-07-29T04:25:50;99726.75;;;17.31;100.00
24558;BME280;12726;49.148;8.582;2023-07-29T04:28:37;99718.88;;;17.39;100.00
24558;BME280;12726;49.148;8.582;2023-07-29T04:31:22;99741.16;;;17.51;100.00
24558;BME280;12726;49.148;8.582;2023-07-29T04:34:07;99749.03;;;17.58;100.00
24558;BME280;12726;49.148;8.582;2023-07-29T04:36:53;99724.88;;;17.62;100.00
24558;BME280;12726;49.148;8.582;2023-07-29T04:39:38;99731.34;;;17.60;100.00
24558;BME280;12726;49.148;8.582;2023-07-29T04:42:23;99740.63;;;17.59;100.00
24558;BME280;12726;49.148;8.582;2023-07-29T04:45:10;99740.06;;;17.63;100.00
24558;BME280;12726;49.148;8.582;2023-07-29T04:47:55;99733.56;;;17.69;100.00
24558;BME280;12726;49.148;8.582;2023-07-29T04:50:41;99730.53;;;17.75;100.00
24558;BME280;12726;49.148;8.582;2023-07-29T04:53:26;99735.97;;;17.80;100.00
24558;BME280;12726;49.148;8.582;2023-07-29T04:56:12;99732.16;;;17.76;100.00
24558;BME280;12726;49.148;8.582;2023-07-29T04:58:57;99743.59;;;17.78;100.00
24558;BME280;12726;49.148;8.582;2023-07-29T05:01:44;99745.50;;;17.78;100.00
24558;BME280;12726;49.148;8.582;2023-07-29T05:04:29;99743.03;;;17.76;100.00
24558;BME280;12726;49.148;8.582;2023-07-29T05:07:15;99737.91;;;17.75;100.00
24558;BME280;12726;49.148;8.582;2023-07-29T05:10:00;99740.88;;;17.73;100.00
24558;BME280;12726;49.148;8.582;2023-07-29T05:12:46;99734.91;;;17.71;100.00
24558;BME280;12726;49.148;8.582;2023-07-29T05:15:31;99738.97;;;17.74;100.00
24558;BME280;12726;49.148;8.582;2023-07-29T05:18:18;99731.63;;;17.74;100.00
24558;BME280;12726;49.148;8.582;2023-07-29T05:21:03;99735.44;;;17.78;100.00
24558;BME280;12726;49.148;8.582;2023-07-29T05:23:49;99741.16;;;17.82;100.00
24558;BME280;12726;49.148;8.582;2023-07-29T05:26:34;99743.84;;;17.87;100.00
24558;BME280;12726;49.148;8.582;2023-07-29T05:29:20;99741.09;;;17.92;100.00
24558;BME280;12726;49.148;8.582;2023-07-29T05:32:06;99744.34;;;17.99;100.00
24558;BME280;12726;49.148;8.582;2023-07-29T05:34:52;99750.31;;;18.06;100.00
24558;BME280;12726;49.148;8.582;2023-07-29T05:37:38;99759.00;;;18.13;100.00
24558;BME280;12726;49.148;8.582;2023-07-29T05:40:24;99757.66;;;18.16;100.00
24558;BME280;12726;49.148;8.582;2023-07-29T05:43:10;99759.00;;;18.23;100.00
24558;BME280;12726;49.148;8.582;2023-07-29T05:45:55;99751.88;;;18.27;100.00
24558;BME280;12726;49.148;8.582;2023-07-29T05:48:40;99757.31;;;18.32;100.00
24558;BME280;12726;49.148;8.582;2023-07-29T05:51:27;99765.72;;;18.41;100.00
24558;BME280;12726;49.148;8.582;2023-07-29T05:54:12;99754.28;;;18.44;100.00
24558;BME280;12726;49.148;8.582;2023-07-29T05:56:57;99757.22;;;18.48;100.00
24558;BME280;12726;49.148;8.582;2023-07-29T05:59:43;99762.69;;;18.48;100.00
24558;BME280;12726;49.148;8.582;2023-07-29T06:02:28;99764.88;;;18.51;100.00
24558;BME280;12726;49.148;8.582;2023-07-29T06:05:14;99763.78;;;18.52;100.00
24558;BME280;12726;49.148;8.582;2023-07-29T06:08:00;99768.69;;;18.60;100.00
24558;BME280;12726;49.148;8.582;2023-07-29T06:10:46;99775.22;;;18.59;100.00
24558;BME280;12726;49.148;8.582;2023-07-29T06:13:32;99770.59;;;18.59;100.00
24558;BME280;12726;49.148;8.582;2023-07-29T06:16:17;99769.50;;;18.60;100.00
24558;BME280;12726;49.148;8.582;2023-07-29T06:19:02;99768.69;;;18.60;100.00
24558;BME280;12726;49.148;8.582;2023-07-29T06:21:48;99771.09;;;18.66;100.00
24558;BME280;12726;49.148;8.582;2023-07-29T06:24:35;99779.22;;;18.71;100.00
24558;BME280;12726;49.148;8.582;2023-07-29T06:27:20;99785.47;;;18.82;100.00
24558;BME280;12726;49.148;8.582;2023-07-29T06:30:06;99792.25;;;18.85;100.00
24558;BME280;12726;49.148;8.582;2023-07-29T06:32:52;99784.06;;;18.90;100.00
24558;BME280;12726;49.148;8.582;2023-07-29T06:35:37;99782.69;;;18.87;100.00
24558;BME280;12726;49.148;8.582;2023-07-29T06:38:23;99789.78;;;18.88;100.00
24558;BME280;12726;49.148;8.582;2023-07-29T06:41:09;99784.56;;;18.92;100.00
24558;BME280;12726;49.148;8.582;2023-07-29T06:43:55;99789.69;;;19.03;100.00
24558;BME280;12726;49.148;8.582;2023-07-29T06:46:40;99784.59;;;19.31;100.00
24558;BME280;12726;49.148;8.582;2023-07-29T06:49:25;99790.63;;;19.62;100.00
24558;BME280;12726;49.148;8.582;2023-07-29T06:52:11;99797.38;;;19.69;100.00
24558;BME280;12726;49.148;8.582;2023-07-29T06:54:56;99801.53;;;19.62;100.00
24558;BME280;12726;49.148;8.582;2023-07-29T06:57:43;99795.03;;;19.58;100.00
24558;BME280;12726;49.148;8.582;2023-07-29T07:00:28;99808.41;;;19.59;100.00
24558;BME280;12726;49.148;8.582;2023-07-29T07:03:13;99794.50;;;19.55;100.00
24558;BME280;12726;49.148;8.582;2023-07-29T07:05:58;99788.53;;;19.53;100.00
24558;BME280;12726;49.148;8.582;2023-07-29T07:08:44;99780.00;;;19.60;100.00
24558;BME280;12726;49.148;8.582;2023-07-29T07:11:29;99779.06;;;19.70;100.00
24558;BME280;12726;49.148;8.582;2023-07-29T07:14:16;99787.25;;;19.99;100.00
24558;BME280;12726;49.148;8.582;2023-07-29T07:17:01;99781.88;;;20.41;100.00
24558;BME280;12726;49.148;8.582;2023-07-29T07:19:47;99783.88;;;20.36;100.00
24558;BME280;12726;49.148;8.582;2023-07-29T07:22:32;99788.28;;;20.31;100.00
24558;BME280;12726;49.148;8.582;2023-07-29T07:25:21;99789.88;;;20.32;100.00
24558;BME280;12726;49.148;8.582;2023-07-29T07:28:06;99791.19;;;20.40;100.00
24558;BME280;12726;49.148;8.582;2023-07-29T07:30:53;99797.47;;;20.41;100.00
24558;BME280;12726;49.148;8.582;2023-07-29T07:33:39;99795.81;;;20.63;100.00
24558;BME280;12726;49.148;8.582;2023-07-29T07:36:25;99795.97;;;20.72;100.00
24558;BME280;12726;49.148;8.582;2023-07-29T07:39:10;99789.47;;;21.05;100.00
24558;BME280;12726;49.148;8.582;2023-07-29T07:41:55;99784.00;;;21.43;100.00
24558;BME280;12726;49.148;8.582;2023-07-29T07:44:40;99792.47;;;21.60;100.00
24558;BME280;12726;49.148;8.582;2023-07-29T07:47:27;99797.47;;;21.39;100.00
24558;BME280;12726;49.148;8.582;2023-07-29T07:50:13;99800.91;;;21.31;100.00
24558;BME280;12726;49.148;8.582;2023-07-29T07:53:01;99796.28;;;21.08;100.00
24558;BME280;12726;49.148;8.582;2023-07-29T07:55:47;99801.97;;;21.11;100.00
24558;BME280;12726;49.148;8.582;2023-07-29T07:58:32;99800.03;;;21.17;100.00
24558;BME280;12726;49.148;8.582;2023-07-29T08:01:17;99800.59;;;21.33;100.00
24558;BME280;12726;49.148;8.582;2023-07-29T08:04:04;99801.63;;;21.18;100.00
24558;BME280;12726;49.148;8.582;2023-07-29T08:06:49;99801.03;;;21.02;100.00
24558;BME280;12726;49.148;8.582;2023-07-29T08:09:34;99801.53;;;20.86;100.00
24558;BME280;12726;49.148;8.582;2023-07-29T08:12:19;99809.50;;;20.82;100.00
24558;BME280;12726;49.148;8.582;2023-07-29T08:15:05;99810.94;;;20.80;100.00
24558;BME280;12726;49.148;8.582;2023-07-29T08:17:51;99820.53;;;20.77;100.00
24558;BME280;12726;49.148;8.582;2023-07-29T08:20:38;99829.34;;;20.74;100.00
24558;BME280;12726;49.148;8.582;2023-07-29T08:23:24;99823.41;;;20.67;100.00
24558;BME280;12726;49.148;8.582;2023-07-29T08:26:09;99827.09;;;20.76;100.00
24558;BME280;12726;49.148;8.582;2023-07-29T08:28:54;99828.91;;;20.86;100.00
24558;BME280;12726;49.148;8.582;2023-07-29T08:31:40;99827.06;;;20.81;100.00
24558;BME280;12726;49.148;8.582;2023-07-29T08:34:25;99832.28;;;20.78;100.00
24558;BME280;12726;49.148;8.582;2023-07-29T08:37:12;99823.34;;;20.72;100.00
24558;BME280;12726;49.148;8.582;2023-07-29T08:39:57;99829.03;;;20.76;100.00
24558;BME280;12726;49.148;8.582;2023-07-29T08:42:45;99812.94;;;20.74;100.00
24558;BME280;12726;49.148;8.582;2023-07-29T08:45:34;99816.16;;;20.76;100.00
24558;BME280;12726;49.148;8.582;2023-07-29T08:48:29;99814.19;;;20.82;100.00
24558;BME280;12726;49.148;8.582;2023-07-29T08:51:17;99822.06;;;21.44;100.00
24558;BME280;12726;49.148;8.582;2023-07-29T08:54:04;99822.69;;;22.75;100.00
24558;BME280;12726;49.148;8.582;2023-07-29T08:56:50;99819.66;;;23.48;97.79
24558;BME280;12726;49.148;8.582;2023-07-29T08:59:35;99825.69;;;24.34;91.43
24558;BME280;12726;49.148;8.582;2023-07-29T09:02:21;99829.31;;;25.00;88.54
24558;BME280;12726;49.148;8.582;2023-07-29T09:05:08;99823.94;;;24.16;89.33
24558;BME280;12726;49.148;8.582;2023-07-29T09:07:54;99822.75;;;24.00;90.05
24558;BME280;12726;49.148;8.582;2023-07-29T09:10:41;99821.91;;;24.22;90.09
24558;BME280;12726;49.148;8.582;2023-07-29T09:13:27;99816.75;;;24.77;85.85
24558;BME280;12726;49.148;8.582;2023-07-29T09:16:13;99818.59;;;25.67;83.27
24558;BME280;12726;49.148;8.582;2023-07-29T09:19:01;99803.06;;;25.28;81.92
24558;BME280;12726;49.148;8.582;2023-07-29T09:21:47;99813.41;;;25.74;78.53
24558;BME280;12726;49.148;8.582;2023-07-29T09:24:33;99804.84;;;25.07;78.25
24558;BME280;12726;49.148;8.582;2023-07-29T09:27:26;99794.97;;;25.15;80.60
24558;BME280;12726;49.148;8.582;2023-07-29T09:30:15;99804.03;;;25.50;80.50
24558;BME280;12726;49.148;8.582;2023-07-29T09:33:01;99801.66;;;24.66;80.93
24558;BME280;12726;49.148;8.582;2023-07-29T09:35:46;99803.34;;;24.05;84.47
24558;BME280;12726;49.148;8.582;2023-07-29T09:38:32;99809.16;;;23.72;87.63
24558;BME280;12726;49.148;8.582;2023-07-29T09:41:17;99811.25;;;23.98;88.49
24558;BME280;12726;49.148;8.582;2023-07-29T09:44:04;99804.50;;;24.35;85.43
24558;BME280;12726;49.148;8.582;2023-07-29T09:46:50;99812.06;;;24.77;84.10
24558;BME280;12726;49.148;8.582;2023-07-29T09:49:35;99809.34;;;25.55;79.07
24558;BME280;12726;49.148;8.582;2023-07-29T09:52:22;99817.47;;;25.60;79.90
24558;BME280;12726;49.148;8.582;2023-07-29T09:55:10;99797.34;;;25.85;73.90
24558;BME280;12726;49.148;8.582;2023-07-29T09:57:56;99816.00;;;26.35;74.50
24558;BME280;12726;49.148;8.582;2023-07-29T10:00:46;99796.88;;;26.30;71.45
24558;BME280;12726;49.148;8.582;2023-07-29T10:03:31;99802.56;;;25.61;74.73
24558;BME280;12726;49.148;8.582;2023-07-29T10:06:18;99807.19;;;25.95;73.66
24558;BME280;12726;49.148;8.582;2023-07-29T10:09:03;99811.88;;;25.94;74.73
24558;BME280;12726;49.148;8.582;2023-07-29T10:11:50;99811.78;;;25.48;74.58
24558;BME280;12726;49.148;8.582;2023-07-29T10:14:39;99810.50;;;25.45;75.40
24558;BME280;12726;49.148;8.582;2023-07-29T10:17:26;99801.72;;;25.52;73.21
24558;BME280;12726;49.148;8.582;2023-07-29T10:20:11;99813.91;;;25.08;74.16
24558;BME280;12726;49.148;8.582;2023-07-29T10:22:59;99814.69;;;24.91;76.58
24558;BME280;12726;49.148;8.582;2023-07-29T10:25:47;99813.56;;;24.92;77.90
24558;BME280;12726;49.148;8.582;2023-07-29T10:28:39;99820.81;;;24.31;78.63
24558;BME280;12726;49.148;8.582;2023-07-29T10:31:25;99827.13;;;24.01;80.69
24558;BME280;12726;49.148;8.582;2023-07-29T10:34:12;99825.19;;;24.01;81.71
24558;BME280;12726;49.148;8.582;2023-07-29T10:36:58;99833.25;;;23.75;83.91
24558;BME280;12726;49.148;8.582;2023-07-29T10:39:52;99826.22;;;23.61;86.23
24558;BME280;12726;49.148;8.582;2023-07-29T10:42:39;99822.09;;;23.50;86.45
24558;BME280;12726;49.148;8.582;2023-07-29T10:45:43;99813.72;;;23.19;86.89
24558;BME280;12726;49.148;8.582;2023-07-29T10:48:44;99809.09;;;24.56;84.69
24558;BME280;12726;49.148;8.582;2023-07-29T10:51:37;99801.09;;;25.03;79.25
24558;BME280;12726;49.148;8.582;2023-07-29T10:54:23;99798.69;;;25.36;77.31
24558;BME280;12726;49.148;8.582;2023-07-29T10:57:12;99784.34;;;25.86;73.05
24558;BME280;12726;49.148;8.582;2023-07-29T10:59:59;99782.38;;;25.95;72.69
24558;BME280;12726;49.148;8.582;2023-07-29T11:02:56;99795.72;;;25.76;72.81
24558;BME280;12726;49.148;8.582;2023-07-29T11:05:44;99805.66;;;25.42;71.56
24558;BME280;12726;49.148;8.582;2023-07-29T11:08:31;99795.91;;;25.45;73.17
24558;BME280;12726;49.148;8.582;2023-07-29T11:11:18;99794.44;;;25.39;71.16
24558;BME280;12726;49.148;8.582;2023-07-29T11:14:04;99782.38;;;25.86;68.06
24558;BME280;12726;49.148;8.582;2023-07-29T11:16:50;99795.09;;;26.25;67.47
24558;BME280;12726;49.148;8.582;2023-07-29T11:19:38;99793.75;;;26.69;67.16
24558;BME280;12726;49.148;8.582;2023-07-29T11:22:24;99797.22;;;27.08;64.45
24558;BME280;12726;49.148;8.582;2023-07-29T11:25:13;99793.53;;;26.45;63.72
24558;BME280;12726;49.148;8.582;2023-07-29T11:28:00;99801.56;;;25.74;65.75
24558;BME280;12726;49.148;8.582;2023-07-29T11:30:45;99802.25;;;25.28;65.72
24558;BME280;12726;49.148;8.582;2023-07-29T11:33:30;99801.88;;;24.86;68.65
24558;BME280;12726;49.148;8.582;2023-07-29T11:36:19;99805.19;;;24.49;72.77
24558;BME280;12726;49.148;8.582;2023-07-29T11:39:09;99812.69;;;23.95;72.51
24558;BME280;12726;49.148;8.582;2023-07-29T11:41:57;99800.66;;;23.60;80.10
24558;BME280;12726;49.148;8.582;2023-07-29T11:44:42;99808.53;;;23.53;79.11
24558;BME280;12726;49.148;8.582;2023-07-29T11:47:28;99815.53;;;23.37;79.72
24558;BME280;12726;49.148;8.582;2023-07-29T11:50:14;99813.88;;;23.14;75.72
24558;BME280;12726;49.148;8.582;2023-07-29T11:53:00;99801.91;;;22.96;75.86
24558;BME280;12726;49.148;8.582;2023-07-29T11:55:50;99798.38;;;22.54;79.28
24558;BME280;12726;49.148;8.582;2023-07-29T11:58:37;99799.09;;;22.33;83.23
24558;BME280;12726;49.148;8.582;2023-07-29T12:01:22;99804.38;;;22.15;86.61
24558;BME280;12726;49.148;8.582;2023-07-29T12:04:08;99807.66;;;22.45;88.84
24558;BME280;12726;49.148;8.582;2023-07-29T12:06:54;99797.38;;;22.78;90.25
24558;BME280;12726;49.148;8.582;2023-07-29T12:09:40;99787.31;;;22.87;89.34
24558;BME280;12726;49.148;8.582;2023-07-29T12:12:26;99786.50;;;23.45;87.01
24558;BME280;12726;49.148;8.582;2023-07-29T12:15:13;99784.38;;;24.26;85.89
24558;BME280;12726;49.148;8.582;2023-07-29T12:18:07;99783.56;;;24.82;79.72
24558;BME280;12726;49.148;8.582;2023-07-29T12:20:52;99790.41;;;25.27;75.60
24558;BME280;12726;49.148;8.582;2023-07-29T12:23:38;99783.75;;;25.54;73.04
24558;BME280;12726;49.148;8.582;2023-07-29T12:26:27;99792.03;;;25.71;72.39
24558;BME280;12726;49.148;8.582;2023-07-29T12:29:13;99785.31;;;25.81;75.06
24558;BME280;12726;49.148;8.582;2023-07-29T12:32:01;99785.06;;;26.12;74.67
24558;BME280;12726;49.148;8.582;2023-07-29T12:34:47;99793.19;;;26.08;70.77
24558;BME280;12726;49.148;8.582;2023-07-29T12:37:32;99784.22;;;26.20;69.47
24558;BME280;12726;49.148;8.582;2023-07-29T12:40:22;99783.34;;;26.37;69.82
24558;BME280;12726;49.148;8.582;2023-07-29T12:43:07;99779.16;;;26.60;69.05
24558;BME280;12726;49.148;8.582;2023-07-29T12:45:53;99781.72;;;26.95;68.30
24558;BME280;12726;49.148;8.582;2023-07-29T12:48:40;99778.91;;;27.03;68.04
24558;BME280;12726;49.148;8.582;2023-07-29T12:51:25;99771.72;;;26.81;64.84
24558;BME280;12726;49.148;8.582;2023-07-29T12:54:11;99769.78;;;26.82;67.31
24558;BME280;12726;49.148;8.582;2023-07-29T12:56:56;99770.56;;;26.62;66.98
24558;BME280;12726;49.148;8.582;2023-07-29T12:59:44;99767.91;;;26.65;66.81
24558;BME280;12726;49.148;8.582;2023-07-29T13:02:29;99765.06;;;26.82;66.37
24558;BME280;12726;49.148;8.582;2023-07-29T13:05:16;99761.25;;;27.16;66.90
24558;BME280;12726;49.148;8.582;2023-07-29T13:08:02;99768.25;;;26.93;64.78
24558;BME280;12726;49.148;8.582;2023-07-29T13:10:48;99775.53;;;27.18;67.31
24558;BME280;12726;49.148;8.582;2023-07-29T13:13:33;99765.75;;;27.00;68.29
24558;BME280;12726;49.148;8.582;2023-07-29T13:16:18;99758.44;;;27.04;65.95
24558;BME280;12726;49.148;8.582;2023-07-29T13:19:04;99753.72;;;26.75;66.11
24558;BME280;12726;49.148;8.582;2023-07-29T13:21:51;99762.84;;;26.76;63.93
24558;BME280;12726;49.148;8.582;2023-07-29T13:24:36;99756.69;;;26.49;63.84
24558;BME280;12726;49.148;8.582;2023-07-29T13:27:22;99752.38;;;26.31;64.70
24558;BME280;12726;49.148;8.582;2023-07-29T13:30:08;99750.63;;;26.27;65.24
24558;BME280;12726;49.148;8.582;2023-07-29T13:32:54;99736.25;;;26.42;64.36
24558;BME280;12726;49.148;8.582;2023-07-29T13:35:39;99742.31;;;26.85;62.49
24558;BME280;12726;49.148;8.582;2023-07-29T13:38:26;99734.69;;;27.03;61.63
24558;BME280;12726;49.148;8.582;2023-07-29T13:41:12;99726.97;;;27.29;59.03
24558;BME280;12726;49.148;8.582;2023-07-29T13:43:57;99739.81;;;27.13;59.27
24558;BME280;12726;49.148;8.582;2023-07-29T13:46:42;99739.94;;;27.17;59.57
24558;BME280;12726;49.148;8.582;2023-07-29T13:49:28;99730.09;;;27.28;59.83
24558;BME280;12726;49.148;8.582;2023-07-29T13:52:13;99743.28;;;27.22;57.32
24558;BME280;12726;49.148;8.582;2023-07-29T13:55:01;99742.38;;;27.18;57.31
24558;BME280;12726;49.148;8.582;2023-07-29T13:57:46;99740.69;;;27.26;56.07
24558;BME280;12726;49.148;8.582;2023-07-29T14:00:35;99741.78;;;27.46;58.25
24558;BME280;12726;49.148;8.582;2023-07-29T14:03:20;99742.66;;;27.38;57.08
24558;BME280;12726;49.148;8.582;2023-07-29T14:06:05;99747.13;;;27.30;56.25
24558;BME280;12726;49.148;8.582;2023-07-29T14:08:50;99744.59;;;27.25;57.02
24558;BME280;12726;49.148;8.582;2023-07-29T14:11:37;99740.81;;;27.09;56.12
24558;BME280;12726;49.148;8.582;2023-07-29T14:14:23;99741.50;;;27.06;56.03
24558;BME280;12726;49.148;8.582;2023-07-29T14:17:08;99730.97;;;27.20;57.77
24558;BME280;12726;49.148;8.582;2023-07-29T14:19:53;99719.41;;;27.06;58.23
24558;BME280;12726;49.148;8.582;2023-07-29T14:22:38;99730.03;;;27.16;55.38
24558;BME280;12726;49.148;8.582;2023-07-29T14:25:24;99742.22;;;27.15;55.79
24558;BME280;12726;49.148;8.582;2023-07-29T14:28:10;99748.03;;;27.01;53.51
24558;BME280;12726;49.148;8.582;2023-07-29T14:30:56;99727.63;;;26.94;54.00
24558;BME280;12726;49.148;8.582;2023-07-29T14:33:41;99743.00;;;27.03;54.62
24558;BME280;12726;49.148;8.582;2023-07-29T14:36:26;99733.41;;;27.01;53.52